createdAt,value
2023-03-20T00:01:59.213Z,64.40
2023-03-20T00:04:25.703Z,64.30
2023-03-20T00:06:52.206Z,64.30
2023-03-20T00:09:18.697Z,64.30
2023-03-20T00:11:45.184Z,64.20
2023-03-20T00:14:11.645Z,64.30
2023-03-20T00:16:38.121Z,64.20
2023-03-20T00:19:04.622Z,64.20
2023-03-20T00:21:31.105Z,64.20
2023-03-20T00:23:57.575Z,64.20
2023-03-20T00:26:24.069Z,64.10
2023-03-20T00:28:50.565Z,64.20
2023-03-20T00:31:17.059Z,64.20
2023-03-20T00:33:43.527Z,64.10
2023-03-20T00:36:10.080Z,64.00
2023-03-20T00:38:36.624Z,64.10
2023-03-20T00:41:03.123Z,64.10
2023-03-20T00:43:29.581Z,64.10
2023-03-20T00:45:58.287Z,64.10
2023-03-20T00:48:24.760Z,64.10
2023-03-20T00:50:51.249Z,64.00
2023-03-20T00:53:17.728Z,64.00
2023-03-20T00:55:44.236Z,63.90
2023-03-20T00:58:10.722Z,63.90
2023-03-20T01:00:37.281Z,63.90
2023-03-20T01:03:03.775Z,63.80
2023-03-20T01:05:30.291Z,63.80
2023-03-20T01:07:56.804Z,63.60
2023-03-20T01:10:23.311Z,63.80
2023-03-20T01:12:49.798Z,63.80
2023-03-20T01:15:16.287Z,63.70
2023-03-20T01:17:42.770Z,63.70
2023-03-20T01:20:09.268Z,63.70
2023-03-20T01:22:35.747Z,63.70
2023-03-20T01:25:02.224Z,63.70
2023-03-20T01:27:28.702Z,63.70
2023-03-20T01:29:58.328Z,63.60
2023-03-20T01:32:24.801Z,63.60
2023-03-20T01:34:51.296Z,63.60
2023-03-20T01:37:17.811Z,63.50
2023-03-20T01:39:44.304Z,63.50
2023-03-20T01:42:10.800Z,63.50
2023-03-20T01:44:37.314Z,63.40
2023-03-20T01:47:04.279Z,63.40
2023-03-20T01:49:30.788Z,63.40
2023-03-20T01:51:57.286Z,63.30
2023-03-20T01:54:23.753Z,63.30
2023-03-20T01:56:50.240Z,63.30
2023-03-20T01:59:16.733Z,63.30
2023-03-20T02:01:43.237Z,63.20
2023-03-20T02:04:09.705Z,63.30
2023-03-20T02:06:36.209Z,63.20
2023-03-20T02:09:02.710Z,63.10
2023-03-20T02:11:29.201Z,63.00
2023-03-20T02:13:55.680Z,63.10
2023-03-20T02:16:22.257Z,63.10
2023-03-20T02:18:48.786Z,63.10
2023-03-20T02:21:15.265Z,63.10
2023-03-20T02:23:41.756Z,63.00
2023-03-20T02:26:08.244Z,63.00
2023-03-20T02:28:34.821Z,63.00
2023-03-20T02:31:01.344Z,63.10
2023-03-20T02:33:27.842Z,63.00
2023-03-20T02:35:54.393Z,63.00
2023-03-20T02:38:20.945Z,62.90
2023-03-20T02:40:47.447Z,62.80
2023-03-20T02:43:13.928Z,62.90
2023-03-20T02:45:40.456Z,62.80
2023-03-20T02:48:06.929Z,62.90
2023-03-20T02:50:33.430Z,62.80
2023-03-20T02:52:59.893Z,62.80
2023-03-20T02:55:26.372Z,62.80
2023-03-20T02:57:52.846Z,62.80
2023-03-20T03:00:19.317Z,62.70
2023-03-20T03:02:45.885Z,62.70
2023-03-20T03:05:12.397Z,62.70
2023-03-20T03:07:38.881Z,62.50
2023-03-20T03:10:05.353Z,62.40
2023-03-20T03:12:31.840Z,62.30
2023-03-20T03:14:58.318Z,62.30
2023-03-20T03:17:28.361Z,62.20
2023-03-20T03:19:54.831Z,62.20
2023-03-20T03:22:21.365Z,62.10
2023-03-20T03:24:47.881Z,62.20
2023-03-20T03:27:14.343Z,62.10
2023-03-20T03:29:40.828Z,62.10
2023-03-20T03:32:07.320Z,62.00
2023-03-20T03:34:33.801Z,61.90
2023-03-20T03:37:00.276Z,61.90
2023-03-20T03:39:26.751Z,62.00
2023-03-20T03:41:53.228Z,61.90
2023-03-20T03:44:19.718Z,61.80
2023-03-20T03:46:46.298Z,62.00
2023-03-20T03:49:12.834Z,61.90
2023-03-20T03:51:39.303Z,61.80
2023-03-20T03:54:05.786Z,61.80
2023-03-20T03:56:34.380Z,61.90
2023-03-20T03:59:00.864Z,61.90
2023-03-20T04:01:27.404Z,61.70
2023-03-20T04:03:53.931Z,61.70
2023-03-20T04:06:20.412Z,61.70
2023-03-20T04:08:46.925Z,61.60
2023-03-20T04:11:16.405Z,61.80
2023-03-20T04:13:42.894Z,61.70
2023-03-20T04:16:09.444Z,61.70
2023-03-20T04:18:35.931Z,61.60
2023-03-20T04:21:04.431Z,61.40
2023-03-20T04:23:30.906Z,61.50
2023-03-20T04:28:47.481Z,61.40
2023-03-20T04:31:13.995Z,61.40
2023-03-20T04:33:40.514Z,61.40
2023-03-20T04:36:10.468Z,61.30
2023-03-20T04:38:36.979Z,61.30
2023-03-20T04:41:03.460Z,61.30
2023-03-20T04:43:29.936Z,61.30
2023-03-20T04:45:56.480Z,61.40
2023-03-20T04:48:23.006Z,61.20
2023-03-20T04:50:52.445Z,61.30
2023-03-20T04:53:18.919Z,61.30
2023-03-20T04:55:46.436Z,61.20
2023-03-20T04:58:12.907Z,61.20
2023-03-20T05:00:39.404Z,61.10
2023-03-20T05:03:05.882Z,61.20
2023-03-20T05:05:32.384Z,61.00
2023-03-20T05:07:58.850Z,60.90
2023-03-20T05:10:25.365Z,61.00
2023-03-20T05:12:51.841Z,61.10
2023-03-20T05:15:18.337Z,61.10
2023-03-20T05:17:44.827Z,61.00
2023-03-20T05:20:11.312Z,60.90
2023-03-20T05:22:37.785Z,61.00
2023-03-20T05:25:04.282Z,61.00
2023-03-20T05:27:30.756Z,60.90
2023-03-20T05:29:57.301Z,60.90
2023-03-20T05:32:23.785Z,60.90
2023-03-20T05:34:50.269Z,60.80
2023-03-20T05:37:16.781Z,60.80
2023-03-20T05:39:43.261Z,60.80
2023-03-20T05:42:09.771Z,60.80
2023-03-20T05:44:36.245Z,60.80
2023-03-20T05:47:02.745Z,60.80
2023-03-20T05:49:29.216Z,60.80
2023-03-20T05:51:55.726Z,60.80
2023-03-20T05:54:22.211Z,60.80
2023-03-20T05:56:48.805Z,60.80
2023-03-20T05:59:15.330Z,60.60
2023-03-20T06:01:41.808Z,60.50
2023-03-20T06:04:08.290Z,60.60
2023-03-20T06:06:34.791Z,60.60
2023-03-20T06:09:01.265Z,60.60
2023-03-20T06:11:27.771Z,60.60
2023-03-20T06:13:54.246Z,60.60
2023-03-20T06:16:20.857Z,60.50
2023-03-20T06:18:47.415Z,60.50
2023-03-20T06:21:13.889Z,60.60
2023-03-20T06:23:40.362Z,60.40
2023-03-20T06:26:06.878Z,60.40
2023-03-20T06:28:33.368Z,60.50
2023-03-20T06:30:59.898Z,60.50
2023-03-20T06:33:26.417Z,60.60
2023-03-20T06:35:52.993Z,60.50
2023-03-20T06:38:19.530Z,60.50
2023-03-20T06:40:46.020Z,60.40
2023-03-20T06:43:12.537Z,60.40
2023-03-20T06:45:39.084Z,60.40
2023-03-20T06:48:05.562Z,60.40
2023-03-20T06:50:32.055Z,60.40
2023-03-20T06:52:58.536Z,60.30
2023-03-20T06:55:25.024Z,60.30
2023-03-20T06:57:51.742Z,60.20
2023-03-20T07:00:22.551Z,60.40
2023-03-20T07:02:49.075Z,60.40
2023-03-20T07:05:15.628Z,60.30
2023-03-20T07:07:42.108Z,60.30
2023-03-20T07:10:08.604Z,60.30
2023-03-20T07:12:40.593Z,60.10
2023-03-20T07:15:07.108Z,60.10
2023-03-20T07:17:33.641Z,60.10
2023-03-20T07:20:00.168Z,60.10
2023-03-20T07:22:26.656Z,60.00
2023-03-20T07:24:53.162Z,60.00
2023-03-20T07:27:19.664Z,60.10
2023-03-20T07:29:46.177Z,60.00
2023-03-20T07:32:12.686Z,59.90
2023-03-20T07:34:39.191Z,59.90
2023-03-20T07:37:05.682Z,59.90
2023-03-20T07:39:32.174Z,59.80
2023-03-20T07:41:58.653Z,59.80
2023-03-20T07:44:25.149Z,59.70
2023-03-20T07:46:51.633Z,59.70
2023-03-20T07:49:18.148Z,59.80
2023-03-20T07:51:44.638Z,59.80
2023-03-20T07:54:11.159Z,59.70
2023-03-20T07:56:40.562Z,59.70
2023-03-20T07:59:07.056Z,59.60
2023-03-20T08:01:33.557Z,59.40
2023-03-20T08:04:00.282Z,59.40
2023-03-20T08:06:26.946Z,59.40
2023-03-20T08:08:53.602Z,59.10
2023-03-20T08:11:20.098Z,59.00
2023-03-20T08:13:46.618Z,59.00
2023-03-20T08:16:16.805Z,59.00
2023-03-20T08:18:43.355Z,59.20
2023-03-20T08:21:09.838Z,59.10
2023-03-20T08:23:36.323Z,59.00
2023-03-20T08:26:02.803Z,59.10
2023-03-20T08:28:46.178Z,58.90
2023-03-20T08:31:13.433Z,58.90
2023-03-20T08:33:40.034Z,58.60
2023-03-20T08:36:06.548Z,58.50
2023-03-20T08:38:33.094Z,58.70
2023-03-20T08:40:59.584Z,58.60
2023-03-20T08:43:26.093Z,58.30
2023-03-20T08:45:52.609Z,58.40
2023-03-20T08:48:19.149Z,58.30
2023-03-20T08:50:45.735Z,58.30
2023-03-20T08:53:12.279Z,58.30
2023-03-20T08:55:38.914Z,58.40
2023-03-20T08:58:05.505Z,58.30
2023-03-20T09:00:31.990Z,58.10
2023-03-20T09:02:58.550Z,58.20
2023-03-20T09:05:25.054Z,58.10
2023-03-20T09:07:51.561Z,58.00
2023-03-20T09:10:18.033Z,58.30
2023-03-20T09:12:44.536Z,58.00
2023-03-20T09:15:11.019Z,58.00
2023-03-20T09:17:37.543Z,58.00
2023-03-20T09:20:04.045Z,58.10
2023-03-20T09:22:30.604Z,57.90
2023-03-20T09:24:57.079Z,58.00
2023-03-20T09:27:23.583Z,57.80
2023-03-20T09:29:50.077Z,57.70
2023-03-20T09:32:16.591Z,57.80
2023-03-20T09:34:43.079Z,57.60
2023-03-20T09:37:09.572Z,57.70
2023-03-20T09:39:36.064Z,57.60
2023-03-20T09:42:02.537Z,57.50
2023-03-20T09:44:29.017Z,57.60
2023-03-20T09:47:02.682Z,57.30
2023-03-20T09:49:40.682Z,57.30
2023-03-20T09:52:07.145Z,57.30
2023-03-20T09:54:47.121Z,57.20
2023-03-20T09:57:19.539Z,57.40
2023-03-20T09:59:46.030Z,57.10
2023-03-20T10:02:12.536Z,56.80
2023-03-20T10:04:39.079Z,56.90
2023-03-20T10:07:05.606Z,56.80
2023-03-20T10:09:32.103Z,56.60
2023-03-20T10:11:58.604Z,56.90
2023-03-20T10:14:25.082Z,56.80
2023-03-20T10:16:51.555Z,56.70
2023-03-20T10:19:18.056Z,56.70
2023-03-20T10:21:44.553Z,56.80
2023-03-20T10:24:11.043Z,56.60
2023-03-20T10:26:37.535Z,56.70
2023-03-20T10:29:04.046Z,56.60
2023-03-20T10:31:30.546Z,56.60
2023-03-20T10:33:57.040Z,56.70
2023-03-20T10:36:23.524Z,56.60
2023-03-20T10:38:50.011Z,56.70
2023-03-20T10:41:16.485Z,56.50
2023-03-20T10:43:43.475Z,56.30
2023-03-20T10:46:10.072Z,56.00
2023-03-20T10:48:36.568Z,56.00
2023-03-20T10:51:04.733Z,56.10
2023-03-20T10:53:31.434Z,56.30
2023-03-20T10:55:57.906Z,56.10
2023-03-20T10:58:24.372Z,56.00
2023-03-20T11:00:50.926Z,55.90
2023-03-20T11:03:17.450Z,55.70
2023-03-20T11:05:44.771Z,56.30
2023-03-20T11:08:12.115Z,55.90
2023-03-20T11:10:38.696Z,55.70
2023-03-20T11:13:05.252Z,55.60
2023-03-20T11:15:31.756Z,55.60
2023-03-20T11:17:58.244Z,55.40
2023-03-20T11:20:24.736Z,55.40
2023-03-20T11:22:51.216Z,55.40
2023-03-20T11:25:17.702Z,55.50
2023-03-20T11:27:44.198Z,55.30
2023-03-20T11:30:10.691Z,55.00
2023-03-20T11:32:37.230Z,55.10
2023-03-20T11:35:03.775Z,55.10
2023-03-20T11:37:30.285Z,55.10
2023-03-20T11:39:56.810Z,55.20
2023-03-20T11:42:23.276Z,55.00
2023-03-20T11:44:49.755Z,55.40
2023-03-20T11:47:16.295Z,55.30
2023-03-20T11:49:42.805Z,55.10
2023-03-20T11:52:09.284Z,55.10
2023-03-20T11:54:35.763Z,55.20
2023-03-20T11:57:02.249Z,55.10
2023-03-20T11:59:28.752Z,55.10
2023-03-20T12:01:55.236Z,55.00
2023-03-20T12:04:21.761Z,54.90
2023-03-20T12:06:48.229Z,54.90
2023-03-20T12:09:14.795Z,55.00
2023-03-20T12:11:41.307Z,55.10
2023-03-20T12:14:07.811Z,55.10
2023-03-20T12:16:34.300Z,54.70
2023-03-20T12:19:00.790Z,54.90
2023-03-20T12:21:27.273Z,54.80
2023-03-20T12:23:59.027Z,54.90
2023-03-20T12:26:28.824Z,54.60
2023-03-20T12:28:55.305Z,54.50
2023-03-20T12:31:22.040Z,54.60
2023-03-20T12:33:48.528Z,54.40
2023-03-20T12:36:15.044Z,54.10
2023-03-20T12:38:41.552Z,54.30
2023-03-20T12:41:10.824Z,54.00
2023-03-20T12:43:37.516Z,54.20
2023-03-20T12:46:04.140Z,54.30
2023-03-20T12:48:30.633Z,54.10
2023-03-20T12:50:57.119Z,54.00
2023-03-20T12:53:23.602Z,54.20
2023-03-20T12:55:50.089Z,54.10
2023-03-20T12:58:16.587Z,54.20
2023-03-20T13:00:43.162Z,54.20
2023-03-20T13:03:09.694Z,54.00
2023-03-20T13:05:36.271Z,53.90
2023-03-20T13:08:02.758Z,54.20
2023-03-20T13:10:29.278Z,54.10
2023-03-20T13:12:55.752Z,54.20
2023-03-20T13:15:22.276Z,54.10
2023-03-20T13:17:48.770Z,53.90
2023-03-20T13:20:15.271Z,53.90
2023-03-20T13:22:41.746Z,53.90
2023-03-20T13:25:08.258Z,53.90
2023-03-20T13:27:34.757Z,53.60
2023-03-20T13:30:01.267Z,53.80
2023-03-20T13:32:27.775Z,53.50
2023-03-20T13:34:54.631Z,53.70
2023-03-20T13:37:24.179Z,53.70
2023-03-20T13:39:50.957Z,53.70
2023-03-20T13:42:17.440Z,53.80
2023-03-20T13:44:43.922Z,53.70
2023-03-20T13:47:10.547Z,53.80
2023-03-20T13:49:37.060Z,53.90
2023-03-20T13:52:03.562Z,54.00
2023-03-20T13:54:30.052Z,53.90
2023-03-20T13:56:56.590Z,53.80
2023-03-20T13:59:23.071Z,53.90
2023-03-20T14:01:49.555Z,53.90
2023-03-20T14:04:16.108Z,53.90
2023-03-20T14:06:44.084Z,53.90
2023-03-20T14:09:10.854Z,53.90
2023-03-20T14:11:37.361Z,53.90
2023-03-20T14:14:03.840Z,53.80
2023-03-20T14:16:30.318Z,53.90
2023-03-20T14:18:56.798Z,54.00
2023-03-20T14:21:23.281Z,53.90
2023-03-20T14:23:49.774Z,54.00
2023-03-20T14:26:16.282Z,53.90
2023-03-20T14:28:42.767Z,54.00
2023-03-20T14:31:09.272Z,54.10
2023-03-20T14:33:35.747Z,54.00
2023-03-20T14:36:02.251Z,54.10
2023-03-20T14:38:28.738Z,54.10
2023-03-20T14:40:55.255Z,54.10
2023-03-20T14:43:21.863Z,54.00
2023-03-20T14:45:48.370Z,54.10
2023-03-20T14:48:14.861Z,54.20
2023-03-20T14:50:41.370Z,54.20
2023-03-20T14:53:07.837Z,54.20
2023-03-20T14:55:34.359Z,54.20
2023-03-20T14:58:00.838Z,54.10
2023-03-20T15:00:27.364Z,54.00
2023-03-20T15:02:53.857Z,54.10
2023-03-20T15:05:20.377Z,54.10
2023-03-20T15:07:46.852Z,54.10
2023-03-20T15:10:13.454Z,54.10
2023-03-20T15:12:39.932Z,54.20
2023-03-20T15:15:06.424Z,54.10
2023-03-20T15:17:32.898Z,54.20
2023-03-20T15:19:59.369Z,54.10
2023-03-20T15:22:25.846Z,54.10
2023-03-20T15:24:52.346Z,54.00
2023-03-20T15:27:18.841Z,54.10
2023-03-20T15:29:45.328Z,54.20
2023-03-20T15:32:14.825Z,54.10
2023-03-20T15:34:41.727Z,54.10
2023-03-20T15:37:10.978Z,54.10
2023-03-20T15:39:37.466Z,54.10
2023-03-20T15:42:03.977Z,54.10
2023-03-20T15:44:30.457Z,54.20
2023-03-20T15:46:56.957Z,54.20
2023-03-20T15:49:23.463Z,54.20
2023-03-20T15:51:49.964Z,54.20
2023-03-20T15:54:16.466Z,54.30
2023-03-20T15:56:42.972Z,54.30
2023-03-20T15:59:09.477Z,54.30
2023-03-20T16:01:41.067Z,54.30
2023-03-20T16:04:08.233Z,54.30
2023-03-20T16:06:34.795Z,54.30
2023-03-20T16:09:01.289Z,54.30
2023-03-20T16:11:27.800Z,54.30
2023-03-20T16:13:54.289Z,54.20
2023-03-20T16:16:20.819Z,54.30
2023-03-20T16:18:53.149Z,54.40
2023-03-20T16:21:19.642Z,54.40
2023-03-20T16:23:46.122Z,54.50
2023-03-20T16:26:17.046Z,54.50
2023-03-20T16:28:43.546Z,54.60
2023-03-20T16:31:10.088Z,54.60
2023-03-20T16:33:36.602Z,54.60
2023-03-20T16:36:03.131Z,54.60
2023-03-20T16:38:29.636Z,54.70
2023-03-20T16:40:56.123Z,54.70
2023-03-20T16:43:22.628Z,54.60
2023-03-20T16:45:49.109Z,54.70
2023-03-20T16:48:15.609Z,54.70
2023-03-20T16:50:42.122Z,54.70
2023-03-20T16:53:08.598Z,54.70
2023-03-20T16:55:35.095Z,54.70
2023-03-20T16:58:05.029Z,54.80
2023-03-20T17:00:31.535Z,54.80
2023-03-20T17:02:58.009Z,54.80
2023-03-20T17:05:24.513Z,54.80
2023-03-20T17:07:50.986Z,54.80
2023-03-20T17:10:17.765Z,54.80
2023-03-20T17:12:47.061Z,54.90
2023-03-20T17:15:13.530Z,54.90
2023-03-20T17:17:40.036Z,54.90
2023-03-20T17:20:06.527Z,54.90
2023-03-20T17:22:33.039Z,54.90
2023-03-20T17:24:59.508Z,54.80
2023-03-20T17:27:26.037Z,55.00
2023-03-20T17:29:52.525Z,55.00
2023-03-20T17:32:19.066Z,55.00
2023-03-20T17:34:45.557Z,55.00
2023-03-20T17:37:12.071Z,55.00
2023-03-20T17:39:38.569Z,55.00
2023-03-20T17:42:05.084Z,55.10
2023-03-20T17:44:31.576Z,55.20
2023-03-20T17:46:59.347Z,54.90
2023-03-20T17:49:25.942Z,55.20
2023-03-20T17:51:52.414Z,55.20
2023-03-20T17:54:18.906Z,55.20
2023-03-20T17:56:45.402Z,55.20
2023-03-20T17:59:11.885Z,55.30
2023-03-20T18:01:38.610Z,55.20
2023-03-20T18:04:05.129Z,55.20
2023-03-20T18:06:31.637Z,55.20
2023-03-20T18:08:58.160Z,55.20
2023-03-20T18:11:24.664Z,55.30
2023-03-20T18:13:51.145Z,55.30
2023-03-20T18:16:17.692Z,55.30
2023-03-20T18:18:44.283Z,55.30
2023-03-20T18:21:10.761Z,55.30
2023-03-20T18:23:37.239Z,55.30
2023-03-20T18:26:03.746Z,55.40
2023-03-20T18:28:30.261Z,55.40
2023-03-20T18:30:56.751Z,55.40
2023-03-20T18:33:23.266Z,55.40
2023-03-20T18:35:49.761Z,55.40
2023-03-20T18:38:16.292Z,55.50
2023-03-20T18:40:42.777Z,55.50
2023-03-20T18:43:09.273Z,55.50
2023-03-20T18:45:35.766Z,55.50
2023-03-20T18:48:02.247Z,55.50
2023-03-20T18:50:28.716Z,55.50
2023-03-20T18:52:55.199Z,55.50
2023-03-20T18:55:21.677Z,55.50
2023-03-20T18:57:48.167Z,55.50
2023-03-20T19:00:14.642Z,55.60
2023-03-20T19:02:41.174Z,55.50
2023-03-20T19:05:07.681Z,55.50
2023-03-20T19:07:34.163Z,55.60
2023-03-20T19:10:00.690Z,55.60
2023-03-20T19:12:27.171Z,55.60
2023-03-20T19:14:53.684Z,55.60
2023-03-20T19:17:20.158Z,55.50
2023-03-20T19:19:46.703Z,55.50
2023-03-20T19:22:26.495Z,55.60
2023-03-20T19:24:55.377Z,55.60
2023-03-20T19:27:21.854Z,55.60
2023-03-20T19:29:48.356Z,55.50
2023-03-20T19:32:14.834Z,55.60
2023-03-20T19:35:38.451Z,55.60
2023-03-20T19:37:27.785Z,55.60
2023-03-20T19:39:54.296Z,55.50
2023-03-20T19:42:50.775Z,55.50
2023-03-20T19:45:07.279Z,55.60
2023-03-20T19:47:33.833Z,55.60
2023-03-20T19:50:00.376Z,55.60
2023-03-20T19:52:28.520Z,55.50
2023-03-20T19:55:02.982Z,55.60
2023-03-20T19:57:30.063Z,55.70
2023-03-20T20:00:39.602Z,55.60
2023-03-20T20:02:43.093Z,55.60
2023-03-20T20:05:09.818Z,55.70
2023-03-20T20:10:22.764Z,55.70
2023-03-20T20:12:49.248Z,55.60
2023-03-20T20:15:15.729Z,55.60
2023-03-20T20:17:42.230Z,55.60
2023-03-20T20:20:08.726Z,55.70
2023-03-20T20:22:35.210Z,55.70
2023-03-20T20:25:01.732Z,55.60
2023-03-20T20:27:28.229Z,55.70
2023-03-20T20:29:54.727Z,55.70
2023-03-20T20:32:23.436Z,55.70
2023-03-20T20:35:35.581Z,55.70
2023-03-20T20:38:30.683Z,55.70
2023-03-20T20:40:23.184Z,55.70
2023-03-20T20:42:49.674Z,55.60
2023-03-20T20:45:16.150Z,55.70
2023-03-20T20:47:42.629Z,55.70
2023-03-20T20:50:09.135Z,55.70
2023-03-20T20:52:35.615Z,55.70
2023-03-20T20:55:21.699Z,55.70
2023-03-20T20:57:48.901Z,55.70
2023-03-20T21:00:15.445Z,55.70
2023-03-20T21:02:41.967Z,55.70
2023-03-20T21:05:08.498Z,55.70
2023-03-20T21:07:34.997Z,55.70
2023-03-20T21:10:01.516Z,55.70
2023-03-20T21:12:38.244Z,55.70
2023-03-20T21:15:06.789Z,55.70
2023-03-20T21:17:33.264Z,55.70
2023-03-20T21:19:59.763Z,55.60
2023-03-20T21:22:26.256Z,55.60
2023-03-20T21:24:58.074Z,55.70
2023-03-20T21:27:33.720Z,55.70
2023-03-20T21:30:00.187Z,55.70
2023-03-20T21:32:26.818Z,55.70
2023-03-20T21:34:53.320Z,55.70
2023-03-20T21:38:36.162Z,55.70
2023-03-20T21:40:06.298Z,55.80
2023-03-20T21:42:32.775Z,55.80
2023-03-20T21:45:54.305Z,55.80
2023-03-20T21:54:11.010Z,55.70
2023-03-20T21:56:48.508Z,55.70
2023-03-20T21:59:34.866Z,55.70
2023-03-20T22:02:09.314Z,55.70
2023-03-20T22:07:45.062Z,55.60
2023-03-20T22:13:29.626Z,55.60
2023-03-20T22:27:26.947Z,55.70
2023-03-20T22:30:07.133Z,55.70
2023-03-20T22:41:32.118Z,55.80
2023-03-20T22:46:22.640Z,55.90
2023-03-20T22:48:48.271Z,55.80
2023-03-20T22:51:14.947Z,55.90
2023-03-20T22:53:42.807Z,55.90
2023-03-20T22:56:10.412Z,55.90
2023-03-20T22:58:36.899Z,55.90
2023-03-20T23:01:03.419Z,55.90
2023-03-20T23:03:40.847Z,55.90
2023-03-20T23:06:08.209Z,55.90
2023-03-20T23:08:42.412Z,55.90
2023-03-20T23:11:14.398Z,56.00
2023-03-20T23:13:40.889Z,56.10
2023-03-20T23:16:11.366Z,56.10
2023-03-20T23:18:37.871Z,56.10
2023-03-20T23:21:04.354Z,56.10
2023-03-20T23:23:30.837Z,56.10
2023-03-20T23:25:57.317Z,56.10
2023-03-20T23:28:23.813Z,56.20
2023-03-20T23:31:03.406Z,56.20
2023-03-20T23:33:36.274Z,56.20
2023-03-20T23:36:16.152Z,56.20
2023-03-20T23:38:45.331Z,56.30
2023-03-20T23:41:11.813Z,56.30
2023-03-20T23:43:38.282Z,56.40
2023-03-20T23:46:04.855Z,56.40
2023-03-20T23:48:31.384Z,56.30
2023-03-20T23:50:57.876Z,56.40
2023-03-20T23:53:24.392Z,56.30
2023-03-20T23:55:50.888Z,56.40
2023-03-20T23:58:17.359Z,56.50
